Time;durP1;ratioP1;P1;durP2;ratioP2;P2;SDS_P1;SDS_P2;PMS_P1;PMS_P2;Temp;Humidity;BMP_temperature;BMP_pressure;BME280_temperature;BME280_humidity;BME280_pressure;Samples;Min_cycle;Max_cycle;Signal;HPM_P1;HPM_P2
2023/03/16 00:02:05;;;;;;;4.50;2.00;;;;;;;12.96;37.32;101617.03;4974245;28;20046;-62
2023/03/16 00:04:31;;;;;;;3.53;2.00;;;;;;;12.96;38.14;101609.81;4972862;28;20042;-62
2023/03/16 00:06:57;;;;;;;2.30;1.60;;;;;;;12.98;37.65;101610.53;4972387;28;20070;-62
2023/03/16 00:09:29;;;;;;;3.72;1.58;;;;;;;13.00;37.28;101600.53;4956051;28;20019;-62
2023/03/16 00:11:56;;;;;;;9.23;2.05;;;;;;;12.99;37.75;101604.19;4968018;28;20030;-62
2023/03/16 00:14:22;;;;;;;2.70;2.08;;;;;;;13.03;37.84;101596.75;4956191;28;20405;-62
2023/03/16 00:16:47;;;;;;;4.18;2.17;;;;;;;12.93;37.11;101587.69;4955910;28;20038;-62
2023/03/16 00:19:13;;;;;;;3.42;1.85;;;;;;;13.02;37.98;101600.41;4973202;28;20038;-62
2023/03/16 00:21:38;;;;;;;3.83;1.95;;;;;;;13.03;36.88;101600.28;4956161;28;20038;-62
2023/03/16 00:24:04;;;;;;;4.90;1.67;;;;;;;13.04;37.00;101585.84;4972897;28;20035;-62
2023/03/16 00:26:30;;;;;;;5.90;2.22;;;;;;;13.05;38.07;101576.81;4955893;28;20074;-63
2023/03/16 00:28:56;;;;;;;6.25;1.95;;;;;;;13.04;37.10;101575.09;4972205;28;20058;-63
2023/03/16 00:31:23;;;;;;;3.33;1.83;;;;;;;12.92;37.14;101564.50;4955337;28;20507;-62
2023/03/16 00:33:50;;;;;;;2.63;1.38;;;;;;;13.02;37.50;101585.13;4971794;28;20038;-62
2023/03/16 00:36:15;;;;;;;5.85;1.98;;;;;;;13.02;37.35;101582.44;4956423;28;20026;-62
2023/03/16 00:38:45;;;;;;;3.95;1.65;;;;;;;12.93;36.98;101561.66;4972064;28;20414;-62
2023/03/16 00:41:14;;;;;;;4.22;1.77;;;;;;;12.92;37.79;101546.53;4956427;28;20402;-63
2023/03/16 00:43:41;;;;;;;3.80;2.30;;;;;;;12.98;38.25;101554.06;4956490;28;20086;-62
2023/03/16 00:46:14;;;;;;;4.80;1.83;;;;;;;13.00;37.67;101557.50;4972102;28;20034;-62
2023/03/16 00:48:42;;;;;;;4.47;1.70;;;;;;;13.01;37.06;101559.19;4970468;28;20034;-62
2023/03/16 00:51:13;;;;;;;4.50;1.67;;;;;;;12.94;38.04;101546.41;4971950;28;20018;-62
2023/03/16 00:53:40;;;;;;;2.28;1.63;;;;;;;13.05;37.67;101560.66;4971603;28;20035;-62
2023/03/16 00:56:06;;;;;;;3.67;1.90;;;;;;;12.98;37.60;101553.25;4955411;28;20126;-63
2023/03/16 00:58:34;;;;;;;5.00;2.67;;;;;;;13.06;37.84;101561.53;4971659;28;20368;-62
2023/03/16 01:01:05;;;;;;;2.47;1.75;;;;;;;12.97;37.43;101547.00;4956683;28;20126;-62
2023/03/16 01:03:31;;;;;;;2.00;1.40;;;;;;;13.04;37.59;101552.72;4956870;28;20027;-63
2023/03/16 01:05:59;;;;;;;4.22;2.47;;;;;;;13.05;36.98;101544.53;4973337;28;20093;-63
2023/03/16 01:08:27;;;;;;;4.53;2.40;;;;;;;12.97;38.07;101525.50;4956993;28;20027;-62
2023/03/16 01:10:54;;;;;;;4.28;2.13;;;;;;;12.98;37.76;101521.81;4974065;28;20041;-62
2023/03/16 01:13:20;;;;;;;7.18;2.35;;;;;;;13.07;37.66;101536.31;4972787;28;20430;-62
2023/03/16 01:15:46;;;;;;;4.00;2.35;;;;;;;13.06;38.34;101527.41;4956523;28;20034;-63
2023/03/16 01:18:12;;;;;;;3.55;2.13;;;;;;;12.99;37.43;101506.53;4956936;28;20041;-63
2023/03/16 01:20:38;;;;;;;5.35;2.42;;;;;;;13.09;38.14;101513.72;4956862;28;20031;-62
2023/03/16 01:23:04;;;;;;;2.13;1.63;;;;;;;13.03;37.68;101503.47;4972739;28;20031;-62
2023/03/16 01:25:29;;;;;;;2.38;1.65;;;;;;;13.12;38.48;101513.47;4956558;28;20081;-62
2023/03/16 01:27:55;;;;;;;6.03;1.95;;;;;;;13.05;38.41;101489.88;4972403;28;20121;-62
2023/03/16 01:30:20;;;;;;;1.67;1.40;;;;;;;13.14;38.51;101503.47;4956343;28;20166;-62
2023/03/16 01:32:46;;;;;;;3.28;1.65;;;;;;;13.15;37.88;101501.63;4956882;28;20019;-62
2023/03/16 01:35:11;;;;;;;4.22;2.00;;;;;;;13.12;38.44;101489.25;4956528;28;20148;-62
2023/03/16 01:37:36;;;;;;;3.13;2.25;;;;;;;13.17;38.07;101495.13;4972648;28;20035;-62
2023/03/16 01:40:05;;;;;;;1.60;1.30;;;;;;;13.03;37.47;101473.88;4972662;28;20058;-62
2023/03/16 01:42:31;;;;;;;2.90;1.95;;;;;;;13.13;38.04;101490.97;4972756;28;20026;-62
2023/03/16 01:45:04;;;;;;;2.70;1.90;;;;;;;13.13;37.82;101499.03;4973113;28;20504;-62
2023/03/16 01:47:30;;;;;;;2.00;1.65;;;;;;;13.09;37.77;101477.94;4957174;28;20117;-62
2023/03/16 01:49:56;;;;;;;2.58;1.65;;;;;;;13.07;38.69;101472.66;4972677;28;20031;-62
2023/03/16 01:52:25;;;;;;;3.33;2.13;;;;;;;13.16;37.72;101479.97;4940967;28;20050;-62
2023/03/16 01:54:55;;;;;;;3.78;1.80;;;;;;;13.10;37.92;101458.09;4960173;28;20106;-62
2023/03/16 01:57:29;;;;;;;4.25;1.77;;;;;;;13.22;37.79;101476.75;4960379;28;20034;-62
2023/03/16 02:00:18;;;;;;;3.55;1.58;;;;;;;13.24;38.27;101472.09;4961369;28;20027;-62
2023/03/16 02:02:47;;;;;;;2.50;1.55;;;;;;;13.24;37.54;101480.16;4976297;28;20046;-63
2023/03/16 02:05:21;;;;;;;2.65;1.55;;;;;;;13.25;37.43;101476.50;4975803;28;20093;-62
2023/03/16 02:07:50;;;;;;;1.95;1.70;;;;;;;13.27;38.04;101473.66;4960573;28;20050;-62
2023/03/16 02:10:18;;;;;;;2.85;1.70;;;;;;;13.31;38.18;101467.91;4976478;28;20045;-62
2023/03/16 02:12:43;;;;;;;4.65;1.92;;;;;;;13.31;38.08;101467.06;4975925;28;20023;-62
2023/03/16 02:15:10;;;;;;;4.95;1.67;;;;;;;13.27;38.01;101474.53;4959847;28;20056;-62
2023/03/16 02:17:35;;;;;;;2.72;1.65;;;;;;;13.28;38.35;101475.38;4959292;28;20039;-62
2023/03/16 02:20:01;;;;;;;2.95;1.48;;;;;;;13.28;38.20;101467.31;4959287;28;20037;-62
2023/03/16 02:22:26;;;;;;;1.83;1.40;;;;;;;13.23;37.61;101462.31;4976947;28;20034;-62
2023/03/16 02:24:53;;;;;;;3.72;2.00;;;;;;;13.28;38.61;101465.47;4943788;28;20113;-63
2023/03/16 02:27:26;;;;;;;2.80;1.77;;;;;;;13.29;38.16;101467.16;4959725;28;20090;-63
2023/03/16 02:29:56;;;;;;;3.13;1.52;;;;;;;13.27;37.56;101458.38;4976298;28;20019;-62
2023/03/16 02:32:23;;;;;;;4.28;1.70;;;;;;;13.26;37.52;101461.22;4975343;28;20043;-62
2023/03/16 02:34:49;;;;;;;4.13;1.77;;;;;;;13.15;38.68;101437.91;4959225;28;20035;-63
2023/03/16 02:37:14;;;;;;;3.55;1.40;;;;;;;13.22;38.64;101449.00;4959086;28;20050;-63
2023/03/16 02:39:42;;;;;;;2.38;1.40;;;;;;;13.23;38.20;101446.16;4959252;28;20475;-62
2023/03/16 02:42:12;;;;;;;5.88;1.50;;;;;;;13.31;38.44;101459.84;4975679;28;20380;-62
2023/03/16 02:44:40;;;;;;;1.50;1.00;;;;;;;13.30;38.37;101452.75;4958884;28;20062;-62
2023/03/16 02:47:12;;;;;;;5.28;1.90;;;;;;;13.24;38.38;101434.44;4959563;28;20039;-62
2023/03/16 02:49:39;;;;;;;3.97;1.50;;;;;;;13.32;38.37;101445.38;4958969;28;20035;-62
2023/03/16 02:52:05;;;;;;;2.10;1.45;;;;;;;13.23;38.20;101429.19;4974776;28;20062;-62
2023/03/16 02:54:31;;;;;;;2.88;1.58;;;;;;;13.19;37.72;101417.84;4975360;28;20138;-62
2023/03/16 02:56:57;;;;;;;2.55;1.38;;;;;;;13.34;37.81;101448.78;4975294;28;20122;-62
2023/03/16 02:59:22;;;;;;;4.00;1.95;;;;;;;13.37;38.56;101448.53;4974869;28;20038;-62
2023/03/16 03:01:48;;;;;;;2.55;1.50;;;;;;;13.36;38.06;101449.53;4975964;28;20042;-62
2023/03/16 03:04:13;;;;;;;2.38;1.25;;;;;;;13.30;38.09;101430.34;4958537;28;20038;-62
2023/03/16 03:06:40;;;;;;;2.08;1.50;;;;;;;13.37;37.33;101447.69;4959651;28;20379;-62
2023/03/16 03:09:06;;;;;;;1.80;1.70;;;;;;;13.37;37.17;101453.06;4978985;28;20050;-62
2023/03/16 03:11:31;;;;;;;5.78;1.38;;;;;;;13.29;37.44;101425.94;4979853;28;20043;-62
2023/03/16 03:13:57;;;;;;;1.67;1.30;;;;;;;13.25;38.36;101425.38;4960704;28;20041;-61
2023/03/16 03:16:23;;;;;;;5.25;1.65;;;;;;;13.38;37.80;101431.41;4958537;28;20027;-62
2023/03/16 03:18:48;;;;;;;3.15;1.45;;;;;;;13.37;37.21;101435.06;4958587;28;20130;-62
2023/03/16 03:21:15;;;;;;;2.53;1.30;;;;;;;13.27;37.41;101415.34;4974918;28;20027;-62
2023/03/16 03:23:40;;;;;;;2.10;1.60;;;;;;;13.24;37.71;101415.59;4958716;28;20066;-62
2023/03/16 03:26:06;;;;;;;1.30;1.10;;;;;;;13.31;37.64;101427.56;4958636;28;20100;-62
2023/03/16 03:28:33;;;;;;;3.25;1.67;;;;;;;13.30;37.44;101425.84;4958146;28;20053;-62
2023/03/16 03:31:00;;;;;;;1.90;1.48;;;;;;;13.27;37.42;101415.34;4975711;28;20045;-61
2023/03/16 03:33:25;;;;;;;3.22;1.45;;;;;;;13.26;37.31;101416.31;4958168;28;20027;-62
2023/03/16 03:35:56;;;;;;;2.10;1.30;;;;;;;13.27;37.25;101409.09;4974871;28;20030;-62
2023/03/16 03:38:23;;;;;;;2.92;1.90;;;;;;;13.16;38.02;101401.09;4974066;28;20038;-62
2023/03/16 03:40:50;;;;;;;2.53;1.60;;;;;;;13.22;38.54;101417.56;4974089;28;20059;-62
2023/03/16 03:43:15;;;;;;;5.75;1.63;;;;;;;13.20;37.34;101408.78;4974150;28;20502;-62
2023/03/16 03:45:41;;;;;;;4.90;1.35;;;;;;;13.18;37.87;101420.63;4973915;28;20073;-62
2023/03/16 03:48:06;;;;;;;2.63;1.42;;;;;;;13.16;37.87;101418.09;4974226;28;20050;-62
2023/03/16 03:50:32;;;;;;;3.65;2.03;;;;;;;13.16;38.18;101412.72;4974136;28;20043;-62
2023/03/16 03:52:57;;;;;;;2.42;1.40;;;;;;;13.13;38.46;101402.22;4975021;28;20053;-62
2023/03/16 03:55:22;;;;;;;3.85;2.42;;;;;;;13.01;38.49;101381.69;4975097;28;20049;-62
2023/03/16 03:57:48;;;;;;;4.10;1.55;;;;;;;13.16;37.54;101410.03;4958074;28;20059;-62
2023/03/16 04:00:13;;;;;;;3.13;1.40;;;;;;;13.13;38.64;101407.59;4974212;28;20035;-62
2023/03/16 04:02:39;;;;;;;4.07;1.80;;;;;;;13.20;37.42;101416.84;4941680;28;20092;-62
2023/03/16 04:05:06;;;;;;;3.88;1.65;;;;;;;13.22;38.13;101419.41;4957832;28;20119;-62
2023/03/16 04:07:31;;;;;;;2.70;1.63;;;;;;;13.20;37.56;101419.56;4957862;28;20042;-62
2023/03/16 04:09:57;;;;;;;1.40;1.30;;;;;;;13.17;37.76;101417.13;4973979;28;20045;-62
2023/03/16 04:12:23;;;;;;;4.13;1.70;;;;;;;13.21;37.60;101415.84;4973605;28;20043;-62
2023/03/16 04:14:48;;;;;;;3.60;1.27;;;;;;;13.21;38.21;101423.94;4958937;28;20050;-62
2023/03/16 04:17:13;;;;;;;4.32;1.70;;;;;;;13.11;38.55;101403.34;4958233;28;20486;-62
2023/03/16 04:19:39;;;;;;;2.72;1.50;;;;;;;13.19;37.91;101420.53;4958530;28;20410;-62
2023/03/16 04:22:06;;;;;;;5.68;1.80;;;;;;;13.19;37.67;101422.34;4973431;28;20410;-62
2023/03/16 04:24:33;;;;;;;4.53;1.70;;;;;;;13.19;37.78;101417.84;4974576;28;20030;-62
2023/03/16 04:26:59;;;;;;;3.47;1.50;;;;;;;13.17;37.64;101409.06;4973679;28;20039;-61
2023/03/16 04:29:25;;;;;;;9.25;1.27;;;;;;;13.06;38.49;101395.63;4957170;28;20043;-62
2023/03/16 04:31:52;;;;;;;3.53;1.50;;;;;;;13.14;38.15;101403.06;4957289;28;20119;-62
2023/03/16 04:34:18;;;;;;;2.25;1.27;;;;;;;13.15;37.77;101400.22;4957608;28;20061;-62
2023/03/16 04:36:43;;;;;;;3.55;1.38;;;;;;;13.09;38.83;101394.56;4974390;28;20491;-62
2023/03/16 04:39:09;;;;;;;3.70;1.45;;;;;;;13.12;38.81;101391.59;4957607;28;20109;-62
2023/03/16 04:41:34;;;;;;;2.70;1.55;;;;;;;13.12;37.86;101397.81;4973228;28;20513;-62
2023/03/16 04:44:00;;;;;;;4.78;1.92;;;;;;;13.12;38.79;101392.44;4957198;28;20046;-62
2023/03/16 04:46:26;;;;;;;3.58;1.27;;;;;;;13.14;38.69;101385.09;4973191;28;20043;-62
2023/03/16 04:48:52;;;;;;;2.17;1.55;;;;;;;13.18;38.31;101383.84;4973218;28;20046;-62
2023/03/16 04:51:17;;;;;;;3.45;1.70;;;;;;;13.24;38.74;101377.94;4957212;28;20041;-62
2023/03/16 04:53:43;;;;;;;2.78;1.85;;;;;;;13.20;38.69;101356.81;4957581;28;20051;-62
2023/03/16 04:56:16;;;;;;;5.28;1.75;;;;;;;13.30;39.08;101377.41;4975014;28;20039;-62
2023/03/16 04:58:43;;;;;;;3.78;2.70;;;;;;;13.25;38.01;101363.50;4958261;28;20190;-62
2023/03/16 05:01:09;;;;;;;7.43;2.15;;;;;;;13.24;38.36;101353.72;4957331;28;20047;-62
2023/03/16 05:03:34;;;;;;;10.23;2.30;;;;;;;13.36;38.27;101384.94;4974589;28;20045;-62
2023/03/16 05:06:00;;;;;;;8.02;2.30;;;;;;;13.35;38.71;101375.16;4973568;28;20038;-62
2023/03/16 05:08:25;;;;;;;5.47;1.98;;;;;;;13.33;37.82;101381.66;4973213;28;20037;-61
2023/03/16 05:10:55;;;;;;;6.00;2.25;;;;;;;13.22;38.61;101368.28;4973637;28;20051;-62
2023/03/16 05:13:20;;;;;;;5.72;2.38;;;;;;;13.30;38.02;101374.72;4972749;28;20038;-62
2023/03/16 05:15:46;;;;;;;5.22;1.67;;;;;;;13.32;39.15;101370.03;4972748;28;20510;-62
2023/03/16 05:18:12;;;;;;;3.75;2.28;;;;;;;13.28;39.17;101352.47;4972982;28;20058;-62
2023/03/16 05:20:37;;;;;;;6.05;2.28;;;;;;;13.36;38.77;101371.50;4956352;28;20042;-62
2023/03/16 05:23:02;;;;;;;5.22;2.70;;;;;;;13.30;38.02;101355.03;4956856;28;20118;-62
2023/03/16 05:25:28;;;;;;;4.18;1.80;;;;;;;13.31;38.16;101365.66;4972191;28;20054;-62
2023/03/16 05:27:53;;;;;;;5.05;2.10;;;;;;;13.38;37.99;101379.41;4974733;28;20086;-62
2023/03/16 05:30:19;;;;;;;5.65;2.40;;;;;;;13.39;37.88;101376.59;4967142;28;20498;-63
2023/03/16 05:32:45;;;;;;;3.08;2.00;;;;;;;13.43;39.04;101376.34;4977208;28;20035;-62
2023/03/16 05:35:12;;;;;;;4.95;2.20;;;;;;;13.41;38.70;101380.00;4976430;28;20458;-62
2023/03/16 05:37:41;;;;;;;3.40;1.85;;;;;;;13.42;38.55;101370.09;4960370;28;20406;-62
2023/03/16 05:40:15;;;;;;;2.80;2.05;;;;;;;13.42;37.99;101378.19;4976424;28;20109;-62
2023/03/16 05:42:45;;;;;;;5.57;2.15;;;;;;;13.33;39.10;101361.00;4976365;28;20035;-62
2023/03/16 05:45:12;;;;;;;2.92;1.60;;;;;;;13.27;38.62;101358.84;4976741;28;20054;-62
2023/03/16 05:47:37;;;;;;;3.17;2.40;;;;;;;13.40;38.95;101372.91;4959987;28;20035;-62
2023/03/16 05:50:04;;;;;;;6.95;2.22;;;;;;;13.43;37.85;101368.28;4976448;28;20035;-62
2023/03/16 05:52:30;;;;;;;6.10;2.38;;;;;;;13.46;38.88;101376.03;4960085;28;20106;-62
2023/03/16 05:54:56;;;;;;;7.28;2.25;;;;;;;13.44;38.16;101376.19;4976421;28;20038;-62
2023/03/16 05:57:22;;;;;;;6.35;1.95;;;;;;;13.45;38.08;101375.22;4944057;28;20465;-62
2023/03/16 05:59:47;;;;;;;7.18;1.90;;;;;;;13.38;38.83;101358.75;4978029;28;20034;-62
2023/03/16 06:02:13;;;;;;;6.20;2.35;;;;;;;13.47;38.09;101375.94;4959869;28;20409;-62
2023/03/16 06:04:38;;;;;;;4.93;1.80;;;;;;;13.38;38.77;101361.44;4943880;28;20034;-62
2023/03/16 06:07:04;;;;;;;2.67;1.90;;;;;;;13.35;38.27;101359.00;4977134;28;20035;-62
2023/03/16 06:09:29;;;;;;;3.42;2.35;;;;;;;13.43;38.91;101376.34;4959535;28;20023;-62
2023/03/16 06:11:55;;;;;;;4.50;1.80;;;;;;;13.40;38.08;101359.47;4976718;28;20045;-62
2023/03/16 06:14:22;;;;;;;3.47;1.80;;;;;;;13.38;38.75;101358.75;4958625;28;20047;-62
2023/03/16 06:16:47;;;;;;;3.88;1.90;;;;;;;13.33;38.69;101338.63;4975639;28;20035;-62
2023/03/16 06:19:12;;;;;;;4.28;1.85;;;;;;;13.41;38.63;101350.41;4959667;28;20126;-62
2023/03/16 06:21:38;;;;;;;3.15;1.80;;;;;;;13.47;38.56;101350.84;4959752;28;20038;-62
2023/03/16 06:24:04;;;;;;;3.53;1.83;;;;;;;13.49;38.25;101354.25;4976407;28;20417;-62
2023/03/16 06:26:29;;;;;;;2.75;1.60;;;;;;;13.53;39.26;101350.31;4976955;28;20039;-63
2023/03/16 06:28:55;;;;;;;2.92;1.80;;;;;;;13.56;37.95;101358.97;4959270;28;20039;-61
2023/03/16 06:31:20;;;;;;;2.22;1.85;;;;;;;13.55;38.95;101362.66;4975388;28;20522;-62
2023/03/16 06:33:46;;;;;;;4.55;2.58;;;;;;;13.48;38.77;101345.34;4974623;28;20126;-61
2023/03/16 06:36:12;;;;;;;2.53;1.50;;;;;;;13.61;38.72;101363.94;4975714;28;20069;-62
2023/03/16 06:38:37;;;;;;;3.92;2.10;;;;;;;13.53;38.32;101344.94;4974622;28;20043;-62
2023/03/16 06:41:03;;;;;;;5.32;2.05;;;;;;;13.64;38.95;101358.28;4959045;28;20041;-62
2023/03/16 06:43:28;;;;;;;3.22;1.90;;;;;;;13.58;38.40;101348.06;4973843;28;20050;-62
2023/03/16 06:45:53;;;;;;;2.67;1.63;;;;;;;13.69;38.98;101358.72;4958689;28;20042;-63
2023/03/16 06:48:19;;;;;;;1.55;1.02;;;;;;;13.64;38.40;101337.63;4958530;28;20402;-62
2023/03/16 06:50:45;;;;;;;2.85;1.80;;;;;;;13.75;38.18;101333.97;4975206;28;20118;-62
2023/03/16 06:53:11;;;;;;;4.88;2.08;;;;;;;13.80;37.97;101331.69;4975382;28;20058;-63
2023/03/16 06:55:36;;;;;;;2.10;1.58;;;;;;;13.84;38.95;101338.53;4975364;28;20134;-62
2023/03/16 06:58:02;;;;;;;3.90;1.70;;;;;;;13.86;38.13;101347.31;4958894;28;20129;-62
2023/03/16 07:00:27;;;;;;;4.40;1.90;;;;;;;13.87;39.24;101354.41;4974779;28;20133;-62
2023/03/16 07:02:53;;;;;;;4.95;1.65;;;;;;;13.82;39.59;101335.97;4959135;28;20040;-63
2023/03/16 07:05:18;;;;;;;2.08;1.17;;;;;;;13.92;37.68;101352.16;4958902;28;20459;-62
2023/03/16 07:07:44;;;;;;;6.70;1.73;;;;;;;13.92;38.94;101358.41;4958676;28;20494;-62
2023/03/16 07:10:14;;;;;;;5.97;2.28;;;;;;;13.92;39.10;101346.78;4976017;28;20042;-62
2023/03/16 07:12:41;;;;;;;6.65;1.90;;;;;;;13.91;39.42;101345.91;4958580;28;20061;-63
2023/03/16 07:15:06;;;;;;;7.20;2.25;;;;;;;13.99;38.23;101353.28;4975084;28;20086;-63
2023/03/16 07:17:32;;;;;;;3.22;1.70;;;;;;;14.03;38.30;101357.44;4958498;28;20050;-62
2023/03/16 07:19:57;;;;;;;3.85;1.30;;;;;;;14.02;39.32;101348.47;4974360;28;20038;-62
2023/03/16 07:22:23;;;;;;;3.10;1.60;;;;;;;14.04;38.87;101356.44;4976080;28;20035;-62
2023/03/16 07:24:54;;;;;;;4.28;1.80;;;;;;;14.02;39.00;101355.72;4958867;28;20038;-63
2023/03/16 07:27:22;;;;;;;4.80;1.65;;;;;;;14.06;38.14;101356.28;4974693;28;20062;-63
2023/03/16 07:29:48;;;;;;;1.80;1.65;;;;;;;13.97;39.15;101344.50;4976661;28;20046;-63
2023/03/16 07:32:13;;;;;;;3.72;1.75;;;;;;;14.10;37.98;101366.63;4960756;28;20415;-62
2023/03/16 07:34:38;;;;;;;2.17;1.38;;;;;;;14.09;38.51;101362.25;4966560;28;20045;-62
2023/03/16 07:37:04;;;;;;;2.83;1.48;;;;;;;14.07;38.20;101356.13;4963812;28;20043;-62
2023/03/16 07:39:30;;;;;;;4.82;1.73;;;;;;;14.08;38.33;101352.47;4958337;28;20414;-63
2023/03/16 07:41:56;;;;;;;2.05;1.30;;;;;;;14.02;38.68;101336.84;4958812;28;20110;-62
2023/03/16 07:44:21;;;;;;;3.40;1.13;;;;;;;14.15;38.98;101348.25;4974615;28;20462;-62
2023/03/16 07:46:46;;;;;;;2.60;1.27;;;;;;;14.13;38.52;101336.72;4973920;28;20035;-62
2023/03/16 07:49:12;;;;;;;3.28;1.50;;;;;;;14.11;38.89;101337.88;4957944;28;20391;-62
2023/03/16 07:51:38;;;;;;;3.80;1.23;;;;;;;14.21;39.27;101344.97;4957051;28;20430;-62
2023/03/16 07:54:04;;;;;;;2.53;1.40;;;;;;;14.18;38.08;101334.47;4942189;28;20109;-62
2023/03/16 07:56:29;;;;;;;5.53;1.40;;;;;;;14.27;39.10;101339.03;4974134;28;20037;-62
2023/03/16 07:58:54;;;;;;;3.63;1.30;;;;;;;14.22;38.81;101333.22;4957674;28;20062;-62
2023/03/16 08:01:21;;;;;;;1.23;1.13;;;;;;;14.31;38.82;101331.50;4957634;28;20038;-62
2023/03/16 08:03:46;;;;;;;2.42;1.23;;;;;;;14.32;39.36;101334.09;4973767;28;20424;-62
2023/03/16 08:06:12;;;;;;;2.38;1.40;;;;;;;14.38;39.39;101325.44;4974173;28;20074;-62
2023/03/16 08:08:37;;;;;;;7.40;1.40;;;;;;;14.42;38.69;101318.78;4957711;28;20114;-62
2023/03/16 08:11:03;;;;;;;4.07;1.05;;;;;;;14.40;38.72;101315.41;4973641;28;20057;-62
2023/03/16 08:13:29;;;;;;;3.10;1.33;;;;;;;14.55;39.17;101327.44;4973600;28;20031;-62
2023/03/16 08:15:57;;;;;;;5.65;1.45;;;;;;;14.65;38.32;101335.53;4973327;28;20027;-63
2023/03/16 08:18:25;;;;;;;1.25;0.98;;;;;;;14.69;38.03;101317.19;4957627;28;20075;-63
2023/03/16 08:20:51;;;;;;;3.60;1.30;;;;;;;14.87;38.43;101334.34;4958094;28;20035;-63
2023/03/16 08:23:16;;;;;;;2.28;1.10;;;;;;;14.95;38.72;101335.34;4973404;28;20038;-62
2023/03/16 08:25:42;;;;;;;4.55;1.10;;;;;;;15.00;38.83;101316.00;4973288;28;20050;-63
2023/03/16 08:28:08;;;;;;;3.58;0.95;;;;;;;15.08;39.17;101324.22;4974364;28;20035;-63
2023/03/16 08:30:34;;;;;;;2.72;0.90;;;;;;;15.13;38.58;101324.66;4957404;28;20026;-63
2023/03/16 08:33:01;;;;;;;2.15;1.05;;;;;;;15.20;38.18;101327.59;4957471;28;20089;-63
2023/03/16 08:35:28;;;;;;;2.38;1.33;;;;;;;15.26;39.15;101319.78;4973379;28;20030;-63
2023/03/16 08:37:54;;;;;;;5.90;1.00;;;;;;;15.30;38.93;101309.56;4957111;28;20031;-63
2023/03/16 08:40:21;;;;;;;2.22;1.00;;;;;;;15.36;38.42;101315.19;4974358;28;20041;-62
2023/03/16 08:42:49;;;;;;;2.00;0.73;;;;;;;15.43;38.61;101318.16;4973232;28;20061;-62
2023/03/16 08:45:14;;;;;;;2.67;1.25;;;;;;;15.50;38.96;101317.44;4941996;28;20035;-62
2023/03/16 08:47:40;;;;;;;5.13;1.05;;;;;;;15.51;38.74;101308.34;4973374;28;20046;-63
2023/03/16 08:50:08;;;;;;;4.65;1.15;;;;;;;15.61;37.36;101314.53;4957156;28;20035;-63
2023/03/16 08:52:35;;;;;;;1.60;1.15;;;;;;;15.62;37.32;101321.66;4956890;28;20185;-63
2023/03/16 08:55:03;;;;;;;1.38;0.73;;;;;;;15.69;37.13;101313.78;4957141;28;20042;-62
2023/03/16 08:57:29;;;;;;;0.63;0.63;;;;;;;15.67;37.90;101302.28;4973196;28;20026;-63
2023/03/16 08:59:54;;;;;;;0.85;0.85;;;;;;;15.80;38.52;101312.75;4957602;28;20555;-63
2023/03/16 09:02:21;;;;;;;1.95;1.08;;;;;;;15.82;38.16;101308.91;4976943;28;20054;-63
2023/03/16 09:04:46;;;;;;;3.00;1.25;;;;;;;15.86;38.25;101301.31;4979509;28;20035;-62
2023/03/16 09:07:12;;;;;;;1.70;1.10;;;;;;;15.90;37.29;101298.19;4947158;28;20550;-62
2023/03/16 09:09:38;;;;;;;0.90;0.70;;;;;;;15.88;38.16;101289.38;4979307;28;20045;-63
2023/03/16 09:12:05;;;;;;;0.95;0.85;;;;;;;15.99;37.32;101304.53;4963805;28;20035;-62
2023/03/16 09:14:30;;;;;;;3.38;0.90;;;;;;;15.99;38.19;101289.16;4979573;28;20109;-63
2023/03/16 09:16:55;;;;;;;3.88;1.02;;;;;;;16.32;36.67;101309.25;4980568;28;20514;-63
2023/03/16 09:19:21;;;;;;;2.80;0.85;;;;;;;16.35;36.91;101287.31;4963231;28;20034;-63
2023/03/16 09:21:47;;;;;;;2.50;0.77;;;;;;;16.56;37.12;101301.38;4979834;28;20030;-63
2023/03/16 09:24:13;;;;;;;7.10;1.20;;;;;;;16.60;37.92;101281.16;4963708;28;20026;-62
2023/03/16 09:26:38;;;;;;;4.40;1.30;;;;;;;16.82;37.55;101296.00;4963591;28;20398;-63
2023/03/16 09:29:05;;;;;;;2.33;1.08;;;;;;;17.06;36.13;101287.19;4963021;28;20080;-63
2023/03/16 09:31:32;;;;;;;2.47;0.95;;;;;;;17.44;36.71;101281.34;4979064;28;20038;-63
2023/03/16 09:33:57;;;;;;;1.88;1.27;;;;;;;17.52;36.16;101291.34;4980488;28;20118;-63
2023/03/16 09:36:23;;;;;;;1.83;0.98;;;;;;;17.59;36.08;101285.13;4962948;28;20125;-63
2023/03/16 09:38:49;;;;;;;3.40;1.15;;;;;;;17.65;36.03;101261.97;4979515;28;20042;-63
2023/03/16 09:41:36;;;;;;;7.30;1.05;;;;;;;17.91;35.90;101279.84;4979010;28;20502;-63
2023/03/16 09:44:38;;;;;;;2.80;1.30;;;;;;;18.63;35.82;101280.97;4975786;28;20054;-63
2023/03/16 09:47:04;;;;;;;0.98;0.82;;;;;;;19.45;34.61;101266.22;4969444;28;20548;-64
2023/03/16 09:49:35;;;;;;;4.20;1.27;;;;;;;20.08;33.51;101274.22;4969823;28;20050;-63
2023/03/16 09:52:15;;;;;;;1.77;1.02;;;;;;;20.21;34.06;101253.53;4979222;28;20086;-63
2023/03/16 09:55:09;;;;;;;5.57;1.25;;;;;;;20.16;33.85;101255.09;4962059;28;20046;-63
2023/03/16 09:57:39;;;;;;;3.30;0.93;;;;;;;20.43;33.83;101272.81;4979386;28;20470;-63
2023/03/16 10:00:18;;;;;;;2.30;1.23;;;;;;;21.10;33.07;101260.13;4981032;28;20084;-64
2023/03/16 10:03:02;;;;;;;1.67;0.88;;;;;;;21.82;32.19;101255.63;4980611;28;20395;-63
2023/03/16 10:05:28;;;;;;;3.80;1.25;;;;;;;21.81;33.06;101245.75;4995346;28;20499;-64
2023/03/16 10:08:39;;;;;;;7.03;1.13;;;;;;;21.53;33.30;101255.69;4963093;28;20042;-63
2023/03/16 10:11:19;;;;;;;1.50;0.95;;;;;;;21.54;32.64;101252.78;4958945;28;20043;-63
2023/03/16 10:13:48;;;;;;;0.77;0.75;;;;;;;22.16;32.27;101244.09;4977311;28;20490;-63
2023/03/16 10:16:21;;;;;;;2.47;0.90;;;;;;;22.73;32.47;101238.53;4976126;28;20434;-64
2023/03/16 10:18:57;;;;;;;2.50;0.88;;;;;;;23.62;30.68;101204.81;4976350;28;20039;-64
2023/03/16 10:21:23;;;;;;;2.40;1.10;;;;;;;24.26;30.30;101229.88;4957847;28;20039;-64
2023/03/16 10:23:50;;;;;;;1.13;0.73;;;;;;;24.45;30.54;101215.34;4960316;28;20482;-64
2023/03/16 10:26:30;;;;;;;2.45;0.90;;;;;;;24.38;29.95;101214.47;4975985;28;20046;-64
2023/03/16 10:28:55;;;;;;;4.20;0.98;;;;;;;24.52;30.38;101220.81;4975754;28;20057;-64
2023/03/16 10:31:22;;;;;;;1.48;0.75;;;;;;;24.52;29.82;101220.81;4959700;28;20406;-64
2023/03/16 10:33:49;;;;;;;1.85;1.13;;;;;;;24.36;29.59;101227.56;4943791;28;20081;-64
2023/03/16 10:36:23;;;;;;;3.08;0.73;;;;;;;24.68;28.98;101213.00;4959927;28;20471;-63
2023/03/16 10:38:54;;;;;;;1.95;0.80;;;;;;;24.94;28.68;101214.91;4975587;28;20054;-64
2023/03/16 10:41:30;;;;;;;2.67;0.77;;;;;;;24.39;28.98;101205.22;4958457;28;20483;-63
2023/03/16 10:44:15;;;;;;;0.75;0.65;;;;;;;24.33;28.74;101195.09;4975382;28;20045;-63
2023/03/16 10:46:47;;;;;;;1.55;0.88;;;;;;;24.33;29.65;101192.38;4975364;28;20038;-64
2023/03/16 10:49:26;;;;;;;1.38;0.98;;;;;;;24.04;29.62;101211.88;4976845;28;20130;-63
2023/03/16 10:51:53;;;;;;;1.52;0.50;;;;;;;24.02;29.25;101211.25;4991389;28;20035;-66
2023/03/16 10:54:25;;;;;;;2.38;0.73;;;;;;;24.14;28.66;101204.13;4975332;28;20499;-63
2023/03/16 10:56:50;;;;;;;1.42;0.63;;;;;;;24.08;29.46;101203.06;4976989;28;20050;-63
2023/03/16 10:59:28;;;;;;;3.70;0.88;;;;;;;23.72;29.95;101202.53;4975244;28;20522;-63
2023/03/16 11:01:54;;;;;;;3.22;0.57;;;;;;;23.54;30.07;101194.91;4991550;28;20406;-64
2023/03/16 11:04:19;;;;;;;1.80;0.80;;;;;;;23.32;29.75;101196.03;4975208;28;20038;-63
2023/03/16 11:06:54;;;;;;;3.00;0.65;;;;;;;23.25;29.02;101210.72;4958987;28;20035;-63
2023/03/16 11:09:27;;;;;;;0.98;0.60;;;;;;;23.01;29.30;101209.31;4975267;28;20030;-63
2023/03/16 11:11:52;;;;;;;5.65;0.85;;;;;;;22.97;29.32;101202.56;4959451;28;20411;-63
2023/03/16 11:14:21;;;;;;;2.58;0.70;;;;;;;23.02;29.75;101202.81;4958850;28;20041;-63
2023/03/16 11:16:57;;;;;;;1.58;0.52;;;;;;;23.07;29.77;101197.56;4975027;28;20057;-63
2023/03/16 11:19:24;;;;;;;2.45;0.60;;;;;;;23.26;28.87;101191.38;4974868;28;20125;-64
2023/03/16 11:22:01;;;;;;;0.88;0.70;;;;;;;23.31;29.64;101199.81;4976225;28;20516;-63
2023/03/16 11:24:38;;;;;;;1.98;0.70;;;;;;;22.98;29.83;101165.97;4974660;28;20033;-65
2023/03/16 11:27:11;;;;;;;2.92;0.52;;;;;;;23.20;28.90;101171.16;4959290;28;20026;-63